Ninde, Virginia
Current Conditions -  °F | °C
As of 6:56 AM on Thursday 18 Dec 2014 (Local Time) from KNYG Reporting Station
Scattered Clouds Scattered Clouds  
Wind Chill: -2°   Ceiling: Unl
Heat Index:   Visibility: 10mi
Dew Point: -7°   Wind: 7mph
Humidity: 56%   Direction: 330°NNW
Pressure: 30.18"   Gusts: NA
Location:  38.27°N, 77.06°W
Report Text: KNYG 181156Z 33006KT 10SM SCT043 01/M07 A3018 RMK AO2 SLP220 T00111067 10039 20011 53015 $
Loading
Personal Weather Stations






























Interactive Weather Map New forecast layout! Learn more

10-Day Weather Forecast

Advertisements
Track Severe Weather on mobile